createdAt,value
2018-12-16T00:02:05.745Z,21.65
2018-12-16T00:04:49.675Z,21.70
2018-12-16T00:07:19.740Z,23.02
2018-12-16T00:09:55.780Z,19.23
2018-12-16T00:12:31.279Z,22.98
2018-12-16T00:15:07.705Z,24.82
2018-12-16T00:17:45.149Z,22.75
2018-12-16T00:20:19.651Z,18.35
2018-12-16T00:22:55.562Z,22.50
2018-12-16T00:25:31.138Z,22.15
2018-12-16T00:28:40.172Z,22.05
2018-12-16T00:31:34.711Z,28.50
2018-12-16T00:34:10.300Z,25.40
2018-12-16T00:36:46.653Z,27.07
2018-12-16T00:39:21.821Z,24.25
2018-12-16T00:41:54.523Z,23.60
2018-12-16T00:44:34.974Z,20.92
2018-12-16T00:47:11.616Z,22.00
2018-12-16T00:49:47.236Z,26.48
2018-12-16T00:52:22.430Z,24.70
2018-12-16T00:55:01.322Z,30.23
2018-12-16T00:57:41.746Z,30.45
2018-12-16T01:00:18.092Z,29.10
2018-12-16T01:02:52.783Z,35.28
2018-12-16T01:05:28.795Z,34.63
2018-12-16T01:08:06.089Z,32.80
2018-12-16T01:10:42.449Z,28.67
2018-12-16T01:13:22.366Z,26.17
2018-12-16T01:15:57.046Z,26.55
2018-12-16T01:18:33.008Z,27.45
2018-12-16T01:21:09.636Z,24.32
2018-12-16T01:23:45.658Z,23.60
2018-12-16T01:26:22.330Z,22.10
2018-12-16T01:28:57.275Z,19.92
2018-12-16T01:31:33.524Z,18.37
2018-12-16T01:34:09.733Z,22.27
2018-12-16T01:36:44.446Z,22.80
2018-12-16T01:39:21.314Z,21.93
2018-12-16T01:41:56.550Z,22.67
2018-12-16T01:44:31.733Z,22.85
2018-12-16T01:47:07.244Z,21.73
2018-12-16T01:49:43.224Z,19.05
2018-12-16T01:52:16.922Z,19.20
2018-12-16T01:54:57.283Z,15.38
2018-12-16T01:57:33.119Z,20.48
2018-12-16T02:00:11.054Z,21.62
2018-12-16T02:02:46.130Z,24.27
2018-12-16T02:05:24.865Z,18.65
2018-12-16T02:08:03.564Z,20.52
2018-12-16T02:10:39.856Z,22.50
2018-12-16T02:13:16.524Z,18.10
2018-12-16T02:15:51.420Z,19.10
2018-12-16T02:18:27.105Z,20.50
2018-12-16T02:21:01.060Z,22.50
2018-12-16T02:23:36.033Z,21.20
2018-12-16T02:26:11.290Z,27.45
2018-12-16T02:28:46.536Z,22.77
2018-12-16T02:31:21.874Z,21.68
2018-12-16T02:33:55.043Z,25.40
2018-12-16T02:36:31.858Z,25.37
2018-12-16T02:39:07.244Z,21.60
2018-12-16T02:41:42.205Z,24.70
2018-12-16T02:44:17.710Z,23.18
2018-12-16T02:46:55.217Z,20.23
2018-12-16T02:49:31.362Z,21.23
2018-12-16T02:52:10.221Z,17.65
2018-12-16T02:54:49.431Z,18.37
2018-12-16T02:57:24.358Z,26.05
2018-12-16T03:00:00.773Z,20.10
2018-12-16T03:02:38.469Z,18.42
2018-12-16T03:05:13.957Z,24.87
2018-12-16T03:10:38.498Z,19.77
2018-12-16T03:13:14.284Z,24.18
2018-12-16T03:15:50.235Z,20.90
2018-12-16T03:18:30.126Z,17.42
2018-12-16T03:21:08.389Z,19.82
2018-12-16T03:23:44.584Z,20.08
2018-12-16T03:26:23.121Z,20.92
2018-12-16T03:28:58.621Z,20.32
2018-12-16T03:31:36.522Z,21.87
2018-12-16T03:34:11.320Z,23.42
2018-12-16T03:36:46.583Z,18.12
2018-12-16T03:39:22.708Z,21.60
2018-12-16T03:41:59.200Z,22.40
2018-12-16T03:44:34.562Z,17.42
2018-12-16T03:47:12.062Z,20.82
2018-12-16T03:49:49.294Z,21.73
2018-12-16T03:52:25.050Z,24.67
2018-12-16T03:55:04.205Z,20.27
2018-12-16T04:00:38.643Z,23.25
2018-12-16T04:03:13.933Z,27.58
2018-12-16T04:05:48.759Z,23.80
2018-12-16T04:08:26.280Z,21.37
2018-12-16T04:11:02.289Z,24.43
2018-12-16T04:13:37.690Z,22.37
2018-12-16T04:16:13.369Z,26.75
2018-12-16T04:18:49.707Z,27.52
2018-12-16T04:21:23.012Z,23.50
2018-12-16T04:24:03.616Z,27.55
2018-12-16T04:26:39.815Z,26.05
2018-12-16T04:29:15.456Z,28.85
2018-12-16T04:31:51.845Z,24.27
2018-12-16T04:34:26.770Z,24.87
2018-12-16T04:37:00.861Z,28.75
2018-12-16T04:39:33.880Z,28.80
2018-12-16T04:42:07.031Z,25.35
2018-12-16T04:44:43.796Z,27.40
2018-12-16T04:47:20.530Z,23.22
2018-12-16T04:49:55.459Z,25.68
2018-12-16T04:52:30.112Z,31.60
2018-12-16T04:55:06.253Z,29.18
2018-12-16T04:57:45.222Z,30.17
2018-12-16T05:00:20.377Z,28.85
2018-12-16T05:02:55.436Z,25.95
2018-12-16T05:05:31.763Z,26.75
2018-12-16T05:08:07.626Z,28.00
2018-12-16T05:10:44.177Z,25.43
2018-12-16T05:13:17.962Z,32.40
2018-12-16T05:15:55.035Z,33.60
2018-12-16T05:18:31.099Z,29.00
2018-12-16T05:21:08.793Z,28.83
2018-12-16T05:23:45.747Z,26.15
2018-12-16T05:26:19.282Z,28.32
2018-12-16T05:28:52.649Z,33.15
2018-12-16T05:31:28.886Z,26.57
2018-12-16T05:34:09.600Z,27.55
2018-12-16T05:36:43.008Z,25.88
2018-12-16T05:39:18.650Z,29.07
2018-12-16T05:41:54.350Z,26.65
2018-12-16T05:44:27.422Z,32.10
2018-12-16T05:47:03.076Z,28.98
2018-12-16T05:49:39.710Z,26.75
2018-12-16T05:52:13.095Z,32.38
2018-12-16T05:54:52.502Z,28.87
2018-12-16T05:57:28.230Z,27.48
2018-12-16T06:00:04.451Z,37.10
2018-12-16T06:02:40.757Z,33.60
2018-12-16T06:05:16.185Z,32.05
2018-12-16T06:07:49.689Z,25.20
2018-12-16T06:10:27.644Z,25.35
2018-12-16T06:13:02.963Z,27.40
2018-12-16T06:15:45.341Z,34.48
2018-12-16T06:18:23.242Z,37.55
2018-12-16T06:20:58.641Z,32.08
2018-12-16T06:23:34.388Z,36.83
2018-12-16T06:26:06.701Z,31.57
2018-12-16T06:28:42.267Z,29.87
2018-12-16T06:31:19.487Z,36.10
2018-12-16T06:33:54.732Z,28.60
2018-12-16T06:36:30.012Z,35.28
2018-12-16T06:39:06.212Z,27.77
2018-12-16T06:41:42.168Z,28.25
2018-12-16T06:44:21.120Z,33.40
2018-12-16T06:46:55.805Z,28.98
2018-12-16T06:49:32.778Z,32.93
2018-12-16T06:52:05.837Z,35.13
2018-12-16T06:54:40.869Z,34.90
2018-12-16T06:57:17.247Z,35.63
2018-12-16T06:59:53.946Z,33.60
2018-12-16T07:02:29.131Z,35.35
2018-12-16T07:05:04.649Z,39.08
2018-12-16T07:07:38.456Z,27.62
2018-12-16T07:10:13.664Z,26.07
2018-12-16T07:12:49.018Z,27.22
2018-12-16T07:15:20.950Z,31.45
2018-12-16T07:17:56.236Z,33.05
2018-12-16T07:20:31.911Z,27.05
2018-12-16T07:23:08.921Z,32.60
2018-12-16T07:25:47.091Z,29.98
2018-12-16T07:28:23.346Z,31.20
2018-12-16T07:31:00.891Z,31.15
2018-12-16T07:33:37.723Z,29.75
2018-12-16T07:36:15.427Z,35.52
2018-12-16T07:38:50.709Z,34.40
2018-12-16T07:41:30.022Z,32.85
2018-12-16T07:44:08.510Z,32.50
2018-12-16T07:46:44.982Z,30.02
2018-12-16T07:49:19.619Z,28.95
2018-12-16T07:51:54.526Z,28.85
2018-12-16T07:54:33.180Z,19.32
2018-12-16T07:57:21.555Z,28.45
2018-12-16T07:59:57.052Z,26.10
2018-12-16T08:02:33.614Z,27.13
2018-12-16T08:05:12.826Z,24.35
2018-12-16T08:10:47.551Z,36.70
2018-12-16T08:13:20.516Z,26.97
2018-12-16T08:15:55.111Z,25.48
2018-12-16T08:18:33.806Z,23.47
2018-12-16T08:21:07.776Z,26.12
2018-12-16T08:23:44.465Z,24.35
2018-12-16T08:26:23.795Z,20.05
2018-12-16T08:29:10.801Z,30.80
2018-12-16T08:31:47.644Z,18.37
2018-12-16T08:34:16.828Z,22.55
2018-12-16T08:36:46.392Z,20.45
2018-12-16T08:39:15.613Z,24.30
2018-12-16T08:41:46.456Z,19.95
2018-12-16T08:44:15.669Z,24.25
2018-12-16T08:46:50.963Z,18.37
2018-12-16T08:52:19.301Z,23.55
2018-12-16T08:54:48.769Z,20.32
2018-12-16T08:57:18.931Z,23.67
2018-12-16T08:59:50.115Z,30.27
2018-12-16T09:02:24.721Z,22.90
2018-12-16T09:04:54.519Z,24.52
2018-12-16T09:07:23.715Z,22.77
2018-12-16T09:10:34.346Z,23.25
2018-12-16T09:13:19.731Z,24.60
2018-12-16T09:16:24.996Z,23.00
2018-12-16T09:19:11.424Z,23.15
2018-12-16T09:21:40.661Z,23.50
2018-12-16T09:24:10.899Z,21.12
2018-12-16T09:26:44.225Z,20.10
2018-12-16T09:29:13.722Z,21.02
2018-12-16T09:31:43.835Z,24.85
2018-12-16T09:34:13.270Z,26.03
2018-12-16T09:36:57.040Z,29.32
2018-12-16T09:42:25.946Z,24.87
2018-12-16T09:44:56.446Z,24.35
2018-12-16T09:47:28.837Z,25.85
2018-12-16T09:50:00.374Z,17.87
2018-12-16T09:52:29.716Z,30.37
2018-12-16T09:55:00.706Z,19.92
2018-12-16T09:57:31.468Z,25.35
2018-12-16T10:00:02.271Z,20.27
2018-12-16T10:02:33.047Z,22.58
2018-12-16T10:05:06.334Z,20.43
2018-12-16T10:07:36.229Z,26.87
2018-12-16T10:10:10.265Z,26.25
2018-12-16T10:12:40.176Z,19.35
2018-12-16T10:15:10.238Z,22.80
2018-12-16T10:17:42.784Z,18.70
2018-12-16T10:20:12.699Z,18.70
2018-12-16T10:22:42.024Z,17.45
2018-12-16T10:25:11.336Z,17.02
2018-12-16T10:27:40.802Z,17.52
2018-12-16T10:30:10.762Z,18.90
2018-12-16T10:32:40.374Z,16.40
2018-12-16T10:35:09.622Z,19.00
2018-12-16T10:37:39.807Z,16.73
2018-12-16T10:40:10.672Z,19.87
2018-12-16T10:42:39.918Z,20.72
2018-12-16T10:45:10.295Z,17.02
2018-12-16T10:47:39.992Z,18.70
2018-12-16T10:50:09.577Z,18.55
2018-12-16T10:52:40.173Z,20.60
2018-12-16T10:55:11.361Z,18.48
2018-12-16T10:57:40.702Z,15.93
2018-12-16T11:00:17.251Z,18.23
2018-12-16T11:02:46.469Z,16.97
2018-12-16T11:05:17.770Z,18.23
2018-12-16T11:07:48.511Z,15.05
2018-12-16T11:10:19.112Z,17.37
2018-12-16T11:12:48.834Z,12.53
2018-12-16T11:15:18.966Z,16.62
2018-12-16T11:17:50.403Z,18.02
2018-12-16T11:20:21.940Z,13.58
2018-12-16T11:22:51.221Z,17.55
2018-12-16T11:25:21.774Z,16.30
2018-12-16T11:27:53.577Z,12.93
2018-12-16T11:30:27.183Z,16.45
2018-12-16T11:33:10.988Z,13.65
2018-12-16T11:35:47.858Z,14.47
2018-12-16T11:38:18.670Z,14.15
2018-12-16T11:40:53.984Z,13.03
2018-12-16T11:43:25.567Z,12.68
2018-12-16T11:45:57.417Z,14.43
2018-12-16T11:48:57.014Z,17.82
2018-12-16T11:51:35.486Z,12.63
2018-12-16T11:54:15.276Z,10.72
2018-12-16T11:56:47.624Z,13.03
2018-12-16T11:59:25.020Z,9.23
2018-12-16T12:01:55.074Z,10.90
2018-12-16T12:04:24.995Z,10.40
2018-12-16T12:06:57.234Z,12.80
2018-12-16T12:09:26.704Z,11.05
2018-12-16T12:12:00.806Z,11.35
2018-12-16T12:14:34.461Z,9.53
2018-12-16T12:17:07.559Z,9.70
2018-12-16T12:19:45.411Z,7.92
2018-12-16T12:22:27.891Z,8.35
2018-12-16T12:24:59.136Z,6.47
2018-12-16T12:27:28.900Z,8.85
2018-12-16T12:29:58.979Z,8.13
2018-12-16T12:32:31.785Z,7.33
2018-12-16T12:35:10.342Z,7.45
2018-12-16T12:37:47.407Z,6.72
2018-12-16T12:40:18.228Z,6.85
2018-12-16T12:42:51.123Z,8.68
2018-12-16T12:45:25.017Z,7.10
2018-12-16T12:47:55.301Z,8.13
2018-12-16T12:50:34.925Z,7.33
2018-12-16T12:56:09.310Z,5.78
2018-12-16T12:58:55.792Z,8.45
2018-12-16T13:01:30.807Z,10.38
2018-12-16T13:04:07.116Z,6.80
2018-12-16T13:06:39.564Z,7.17
2018-12-16T13:09:12.797Z,6.55
2018-12-16T13:11:49.970Z,9.00
2018-12-16T13:14:22.581Z,4.65
2018-12-16T13:17:02.715Z,5.25
2018-12-16T13:19:40.015Z,5.03
2018-12-16T13:22:15.065Z,4.92
2018-12-16T13:24:58.123Z,6.65
2018-12-16T13:27:27.334Z,8.03
2018-12-16T13:29:56.787Z,5.30
2018-12-16T13:32:27.719Z,5.50
2018-12-16T13:34:59.753Z,3.70
2018-12-16T13:37:30.134Z,5.20
2018-12-16T13:40:00.221Z,3.95
2018-12-16T13:42:29.439Z,3.98
2018-12-16T13:45:01.249Z,4.08
2018-12-16T13:47:33.151Z,6.08
2018-12-16T13:50:02.722Z,4.58
2018-12-16T13:52:32.933Z,4.12
2018-12-16T13:55:05.839Z,9.15
2018-12-16T13:57:38.362Z,4.80
2018-12-16T14:00:13.800Z,5.47
2018-12-16T14:02:50.001Z,4.40
2018-12-16T14:05:20.618Z,5.15
2018-12-16T14:07:52.690Z,3.85
2018-12-16T14:10:24.507Z,6.35
2018-12-16T14:12:53.757Z,5.45
2018-12-16T14:15:25.285Z,5.50
2018-12-16T14:17:55.129Z,3.72
2018-12-16T14:20:28.105Z,3.92
2018-12-16T14:23:09.439Z,6.17
2018-12-16T14:25:39.007Z,5.80
2018-12-16T14:28:08.532Z,4.25
2018-12-16T14:30:39.319Z,5.45
2018-12-16T14:33:10.146Z,3.33
2018-12-16T14:35:41.280Z,5.42
2018-12-16T14:38:11.257Z,3.70
2018-12-16T14:40:42.383Z,3.80
2018-12-16T14:43:13.599Z,4.42
2018-12-16T14:45:43.200Z,5.30
2018-12-16T14:48:14.522Z,3.72
2018-12-16T14:50:44.142Z,7.80
2018-12-16T14:53:13.950Z,9.05
2018-12-16T14:55:45.342Z,3.30
2018-12-16T14:58:14.656Z,4.40
2018-12-16T15:00:44.678Z,4.22
2018-12-16T15:03:15.783Z,5.12
2018-12-16T15:05:45.083Z,9.08
2018-12-16T15:08:14.310Z,5.00
2018-12-16T15:10:44.572Z,8.40
2018-12-16T15:13:16.928Z,3.95
2018-12-16T15:15:46.883Z,5.90
2018-12-16T15:18:18.294Z,4.80
2018-12-16T15:20:50.075Z,5.55
2018-12-16T15:23:21.300Z,5.10
2018-12-16T15:26:02.003Z,4.50
2018-12-16T15:28:29.115Z,7.40
2018-12-16T15:31:00.366Z,3.83
2018-12-16T15:33:32.723Z,7.30
2018-12-16T15:36:03.369Z,6.40
2018-12-16T15:38:32.645Z,6.53
2018-12-16T15:41:12.778Z,9.55
2018-12-16T15:43:58.502Z,5.50
2018-12-16T15:46:28.443Z,4.85
2018-12-16T15:48:59.967Z,4.22
2018-12-16T15:51:30.430Z,5.05
2018-12-16T15:54:01.418Z,6.03
2018-12-16T15:56:35.243Z,7.28
2018-12-16T15:59:04.931Z,6.47
2018-12-16T16:01:34.279Z,6.22
2018-12-16T16:04:03.814Z,5.58
2018-12-16T16:06:33.332Z,6.05
2018-12-16T16:09:03.068Z,6.42
2018-12-16T16:11:33.240Z,6.40
2018-12-16T16:14:03.750Z,5.85
2018-12-16T16:16:33.115Z,5.75
2018-12-16T16:19:05.319Z,5.08
2018-12-16T16:21:36.872Z,6.20
2018-12-16T16:24:13.334Z,5.03
2018-12-16T16:26:42.616Z,3.50
2018-12-16T16:29:19.325Z,5.65
2018-12-16T16:32:04.636Z,3.80
2018-12-16T16:34:35.339Z,7.65
2018-12-16T16:37:04.623Z,54.33
2018-12-16T16:39:34.923Z,21.93
2018-12-16T16:42:04.833Z,24.37
2018-12-16T16:44:34.243Z,7.17
2018-12-16T16:47:05.746Z,5.30
2018-12-16T16:49:36.142Z,9.93
2018-12-16T16:52:05.564Z,6.58
2018-12-16T16:54:41.493Z,7.97
2018-12-16T16:57:13.511Z,7.90
2018-12-16T17:03:18.503Z,11.75
2018-12-16T17:05:47.811Z,9.88
2018-12-16T17:08:31.785Z,11.12
2018-12-16T17:11:10.601Z,11.55
2018-12-16T17:13:55.290Z,10.28
2018-12-16T17:19:15.397Z,5.17
2018-12-16T17:21:45.195Z,6.35
2018-12-16T17:24:17.477Z,8.98
2018-12-16T17:27:31.923Z,10.05
2018-12-16T17:35:57.155Z,7.53
2018-12-16T17:38:36.988Z,18.20
2018-12-16T17:41:28.060Z,10.45
2018-12-16T17:44:08.053Z,12.25
2018-12-16T17:46:41.798Z,14.93
2018-12-16T17:49:21.181Z,13.58
2018-12-16T17:51:52.791Z,16.00
2018-12-16T17:54:33.869Z,14.15
2018-12-16T17:57:06.469Z,28.80
2018-12-16T18:00:01.178Z,18.10
2018-12-16T18:02:33.677Z,10.30
2018-12-16T18:05:06.357Z,12.23
2018-12-16T18:07:38.276Z,9.13
2018-12-16T18:10:09.368Z,8.50
2018-12-16T18:12:39.229Z,11.70
2018-12-16T18:15:09.171Z,6.90
2018-12-16T18:17:48.158Z,11.88
2018-12-16T18:20:34.246Z,9.43
2018-12-16T18:23:10.742Z,7.60
2018-12-16T18:25:42.654Z,8.93
2018-12-16T18:28:31.732Z,7.47
2018-12-16T18:34:15.426Z,8.98
2018-12-16T18:36:45.063Z,15.28
2018-12-16T18:39:17.754Z,9.43
2018-12-16T18:45:11.862Z,7.97
2018-12-16T18:47:43.623Z,8.38
2018-12-16T18:50:33.667Z,12.93
2018-12-16T18:55:53.883Z,13.35
2018-12-16T18:58:54.245Z,30.15
2018-12-16T19:03:54.625Z,14.63
2018-12-16T19:06:27.109Z,18.82
2018-12-16T19:08:56.381Z,8.45
2018-12-16T19:11:26.955Z,12.55
2018-12-16T19:13:56.341Z,14.00
2018-12-16T19:16:25.864Z,16.82
2018-12-16T19:18:56.469Z,13.28
2018-12-16T19:21:25.856Z,12.28
2018-12-16T19:23:56.041Z,14.80
2018-12-16T19:26:25.627Z,20.10
2018-12-16T19:28:54.976Z,22.05
2018-12-16T19:31:24.946Z,19.60
2018-12-16T19:33:55.636Z,36.85
2018-12-16T19:36:25.409Z,24.63
2018-12-16T19:38:55.151Z,20.72
2018-12-16T19:41:24.625Z,21.95
2018-12-16T19:43:54.682Z,22.62
2018-12-16T19:46:24.036Z,23.65
2018-12-16T19:48:54.009Z,22.50
2018-12-16T19:51:24.691Z,20.30
2018-12-16T19:53:53.954Z,28.90
2018-12-16T19:56:23.598Z,31.25
2018-12-16T19:58:53.348Z,31.73
2018-12-16T20:01:24.268Z,43.98
2018-12-16T20:11:42.401Z,35.10
2018-12-16T20:17:34.534Z,28.65
2018-12-16T20:20:27.071Z,24.20
2018-12-16T20:23:07.323Z,26.12
2018-12-16T20:25:37.074Z,32.03
2018-12-16T20:31:37.413Z,35.83
2018-12-16T20:43:08.923Z,27.15
2018-12-16T20:45:49.102Z,19.12
2018-12-16T20:48:34.625Z,22.55
2018-12-16T20:51:22.855Z,21.95
2018-12-16T20:53:58.319Z,17.50
2018-12-16T20:56:28.900Z,18.00
2018-12-16T21:02:08.384Z,18.23
2018-12-16T21:04:37.803Z,21.37
2018-12-16T21:07:31.167Z,26.45
2018-12-16T21:16:04.315Z,30.92
2018-12-16T21:18:38.297Z,24.57
2018-12-16T21:21:19.938Z,26.02
2018-12-16T21:23:59.779Z,23.60
2018-12-16T21:26:39.014Z,18.62
2018-12-16T21:29:17.628Z,17.20
2018-12-16T21:34:56.606Z,23.27
2018-12-16T21:40:41.981Z,20.70
2018-12-16T21:43:12.933Z,20.80
2018-12-16T21:51:42.506Z,19.62
2018-12-16T21:57:10.857Z,25.27
2018-12-16T21:59:42.409Z,21.33
2018-12-16T22:02:11.697Z,22.52
2018-12-16T22:04:45.324Z,18.60
2018-12-16T22:07:15.022Z,18.77
2018-12-16T22:09:44.490Z,21.23
2018-12-16T22:12:14.501Z,17.90
2018-12-16T22:14:45.202Z,10.75
2018-12-16T22:17:14.988Z,15.78
2018-12-16T22:19:46.267Z,11.85
2018-12-16T22:22:18.938Z,22.07
2018-12-16T22:24:50.446Z,17.12
2018-12-16T22:27:19.744Z,14.47
2018-12-16T22:30:01.125Z,16.17
2018-12-16T22:32:37.875Z,18.62
2018-12-16T22:35:13.028Z,34.53
2018-12-16T22:40:52.626Z,32.93
2018-12-16T22:43:28.293Z,28.95
2018-12-16T22:45:59.524Z,27.77
2018-12-16T22:51:32.022Z,26.52
2018-12-16T22:54:02.683Z,28.32
2018-12-16T22:56:32.603Z,30.88
2018-12-16T22:59:02.788Z,26.80
2018-12-16T23:01:32.050Z,35.98
2018-12-16T23:07:05.724Z,34.00
2018-12-16T23:12:41.503Z,25.25
2018-12-16T23:15:28.544Z,35.65
2018-12-16T23:18:00.067Z,31.68
2018-12-16T23:23:28.632Z,31.90
2018-12-16T23:26:00.231Z,26.33
2018-12-16T23:28:30.445Z,32.45
2018-12-16T23:30:59.835Z,34.73
2018-12-16T23:33:29.060Z,35.95
2018-12-16T23:35:58.295Z,39.92
2018-12-16T23:38:27.599Z,34.48
2018-12-16T23:40:59.597Z,37.80
2018-12-16T23:43:28.837Z,25.10
2018-12-16T23:45:59.134Z,40.80
2018-12-16T23:48:28.364Z,27.75
2018-12-16T23:51:10.105Z,35.68
2018-12-16T23:53:51.447Z,26.93
2018-12-16T23:59:28.910Z,29.50
